EZY44W EGKK-LPMA
Flight info
| Callsign | EZY44W |
|---|---|
| Flight time | N/A |
| Altitude | 35000 |
| Route | NOVMA L620 SAM M195 LORKU DCT EBOMO DCT COQUE DCT KORUL/N0447F370 DCT AGADO DCT LAMDI DCT VABEM DCT LIDRO |
| Aircraft | A21N/M-SDE2E3FGHIRWXY/LB1 |
Departure
| Time | 2026-04-15 15:49 |
|---|---|
| Airport | London Gatwick Airport (EGKK) |
Arrival
| Time | N/A |
|---|---|
| Airport | Cristiano Ronaldo International Airport (LPMA) |
| Time | Latitude | Longitude | Altitude | Speed | Heading |
|---|---|---|---|---|---|
| 2026-04-15 15:34 | 51.15458 | -0.17083 | 215 ft | 0 kts | 348° |
| 2026-04-15 15:42 | 51.15448 | -0.17080 | 206 ft | 2 kts | 348° |
| 2026-04-15 15:42 | 51.15432 | -0.17074 | 206 ft | 3 kts | 347° |
| 2026-04-15 15:43 | 51.15419 | -0.17050 | 218 ft | 0 kts | 251° |
| 2026-04-15 15:44 | 51.15417 | -0.17062 | 209 ft | 4 kts | 252° |
| 2026-04-15 15:44 | 51.15402 | -0.17133 | 217 ft | 6 kts | 251° |
| 2026-04-15 15:45 | 51.15388 | -0.17190 | 219 ft | 8 kts | 245° |
| 2026-04-15 15:45 | 51.15320 | -0.17232 | 210 ft | 15 kts | 172° |
| 2026-04-15 15:45 | 51.15259 | -0.17188 | 211 ft | 0 kts | 149° |
| 2026-04-15 15:45 | 51.15254 | -0.17183 | 209 ft | 5 kts | 147° |
| 2026-04-15 15:46 | 51.15208 | -0.17098 | 212 ft | 16 kts | 108° |
| 2026-04-15 15:46 | 51.15212 | -0.16980 | 204 ft | 15 kts | 81° |
| 2026-04-15 15:46 | 51.15208 | -0.16824 | 208 ft | 3 kts | 141° |
| 2026-04-15 15:47 | 51.15191 | -0.16807 | 213 ft | 12 kts | 154° |
| 2026-04-15 15:47 | 51.15118 | -0.16864 | 210 ft | 13 kts | 245° |
| 2026-04-15 15:48 | 51.15093 | -0.16987 | 210 ft | 12 kts | 256° |
| 2026-04-15 15:48 | 51.15035 | -0.17386 | 209 ft | 44 kts | 257° |
| 2026-04-15 15:48 | 51.14998 | -0.17659 | 215 ft | 26 kts | 258° |
| 2026-04-15 15:48 | 51.14903 | -0.18341 | 212 ft | 100 kts | 258° |
| 2026-04-15 15:49 | 51.14706 | -0.19813 | 217 ft | 167 kts | 255° |
| 2026-04-15 15:49 | 51.14465 | -0.21719 | 759 ft | 179 kts | 256° |
| 2026-04-15 15:49 | 51.14220 | -0.23654 | 1645 ft | 184 kts | 253° |
| 2026-04-15 15:49 | 51.13919 | -0.25738 | 2293 ft | 202 kts | 252° |
| 2026-04-15 15:50 | 51.13597 | -0.27962 | 3288 ft | 209 kts | 253° |
| 2026-04-15 15:50 | 51.13273 | -0.30254 | 4376 ft | 214 kts | 252° |
| 2026-04-15 15:50 | 51.12945 | -0.32592 | 5451 ft | 218 kts | 253° |
| 2026-04-15 15:50 | 51.12619 | -0.34926 | 6455 ft | 219 kts | 253° |
| 2026-04-15 15:51 | 51.12289 | -0.37293 | 7475 ft | 220 kts | 253° |
| 2026-04-15 15:51 | 51.11956 | -0.39678 | 8506 ft | 225 kts | 252° |
| 2026-04-15 15:51 | 51.11577 | -0.42180 | 9320 ft | 236 kts | 249° |
| 2026-04-15 15:51 | 51.10972 | -0.44633 | 9960 ft | 246 kts | 242° |
| 2026-04-15 15:52 | 51.10198 | -0.47185 | 10256 ft | 267 kts | 241° |
| 2026-04-15 15:52 | 51.09332 | -0.49932 | 10569 ft | 288 kts | 241° |
| 2026-04-15 15:52 | 51.08417 | -0.52837 | 11116 ft | 298 kts | 241° |
| 2026-04-15 15:52 | 51.07495 | -0.55776 | 11849 ft | 303 kts | 241° |
| 2026-04-15 15:53 | 51.06550 | -0.58800 | 12641 ft | 308 kts | 241° |
| 2026-04-15 15:53 | 51.05629 | -0.61897 | 13445 ft | 313 kts | 246° |
| 2026-04-15 15:53 | 51.05007 | -0.65245 | 14199 ft | 319 kts | 252° |
| 2026-04-15 15:53 | 51.04525 | -0.68706 | 14915 ft | 323 kts | 254° |
| 2026-04-15 15:54 | 51.04062 | -0.72229 | 15615 ft | 327 kts | 254° |
| 2026-04-15 15:54 | 51.03593 | -0.75785 | 16323 ft | 331 kts | 253° |
| 2026-04-15 15:54 | 51.03114 | -0.79381 | 17020 ft | 334 kts | 253° |
| 2026-04-15 15:54 | 51.02628 | -0.83008 | 17695 ft | 337 kts | 253° |
| 2026-04-15 15:55 | 51.02133 | -0.86664 | 18357 ft | 340 kts | 253° |
| 2026-04-15 15:55 | 51.01636 | -0.90316 | 18903 ft | 345 kts | 252° |
| 2026-04-15 15:55 | 51.01126 | -0.94050 | 19473 ft | 348 kts | 252° |
| 2026-04-15 15:55 | 51.00615 | -0.97794 | 20249 ft | 346 kts | 252° |
| 2026-04-15 15:56 | 51.00105 | -1.01530 | 20882 ft | 348 kts | 252° |
| 2026-04-15 15:56 | 50.99586 | -1.05303 | 21396 ft | 352 kts | 251° |
| 2026-04-15 15:56 | 50.99057 | -1.09126 | 21887 ft | 357 kts | 251° |
| 2026-04-15 15:56 | 50.98520 | -1.12988 | 22412 ft | 360 kts | 251° |
| 2026-04-15 15:57 | 50.97985 | -1.16833 | 22919 ft | 363 kts | 251° |
| 2026-04-15 15:57 | 50.97438 | -1.20763 | 23404 ft | 367 kts | 251° |
| 2026-04-15 15:57 | 50.96841 | -1.24708 | 23832 ft | 368 kts | 247° |
| 2026-04-15 15:57 | 50.96001 | -1.28530 | 24220 ft | 366 kts | 241° |
| 2026-04-15 15:58 | 50.94861 | -1.32122 | 24612 ft | 364 kts | 234° |
| 2026-04-15 15:58 | 50.93411 | -1.35391 | 24987 ft | 363 kts | 227° |
| 2026-04-15 15:58 | 50.91661 | -1.38262 | 25367 ft | 362 kts | 219° |
| 2026-04-15 15:58 | 50.89675 | -1.40723 | 25738 ft | 363 kts | 214° |
| 2026-04-15 15:59 | 50.87584 | -1.43021 | 26018 ft | 370 kts | 214° |
| 2026-04-15 15:59 | 50.85441 | -1.45241 | 26188 ft | 375 kts | 214° |
| 2026-04-15 15:59 | 50.83236 | -1.47473 | 26554 ft | 377 kts | 213° |
| 2026-04-15 15:59 | 50.81021 | -1.49708 | 26943 ft | 378 kts | 213° |
| 2026-04-15 16:00 | 50.78802 | -1.51959 | 27300 ft | 380 kts | 213° |
| 2026-04-15 16:00 | 50.76580 | -1.54229 | 27646 ft | 381 kts | 213° |
| 2026-04-15 16:00 | 50.74350 | -1.56519 | 27976 ft | 383 kts | 213° |
| 2026-04-15 16:00 | 50.72112 | -1.58823 | 28289 ft | 385 kts | 213° |
| 2026-04-15 16:01 | 50.69863 | -1.61141 | 28616 ft | 387 kts | 213° |
| 2026-04-15 16:01 | 50.67632 | -1.63439 | 28896 ft | 389 kts | 213° |
| 2026-04-15 16:01 | 50.65363 | -1.65774 | 29196 ft | 391 kts | 213° |
| 2026-04-15 16:01 | 50.63079 | -1.68120 | 29441 ft | 393 kts | 214° |
| 2026-04-15 16:02 | 50.60783 | -1.70476 | 29641 ft | 396 kts | 214° |
| 2026-04-15 16:02 | 50.58470 | -1.72846 | 29924 ft | 397 kts | 213° |
| 2026-04-15 16:02 | 50.56149 | -1.75222 | 30190 ft | 399 kts | 213° |
| 2026-04-15 16:02 | 50.53818 | -1.77604 | 30411 ft | 400 kts | 213° |
| 2026-04-15 16:03 | 50.51485 | -1.79987 | 30712 ft | 399 kts | 214° |
| 2026-04-15 16:03 | 50.49192 | -1.82326 | 31041 ft | 398 kts | 214° |
| 2026-04-15 16:03 | 50.46874 | -1.84689 | 31352 ft | 397 kts | 214° |
| 2026-04-15 16:03 | 50.44555 | -1.87051 | 31547 ft | 400 kts | 214° |
| 2026-04-15 16:04 | 50.39848 | -1.91837 | 31907 ft | 403 kts | 215° |
| 2026-04-15 16:04 | 50.37503 | -1.94213 | 32273 ft | 400 kts | 215° |
| 2026-04-15 16:04 | 50.35174 | -1.96572 | 32609 ft | 398 kts | 215° |
| 2026-04-15 16:05 | 50.32851 | -1.98922 | 32884 ft | 397 kts | 215° |
| 2026-04-15 16:05 | 50.30565 | -2.01233 | 33157 ft | 396 kts | 215° |
| 2026-04-15 16:05 | 50.28250 | -2.03571 | 33406 ft | 396 kts | 215° |
| 2026-04-15 16:05 | 50.25939 | -2.05902 | 33661 ft | 395 kts | 215° |
| 2026-04-15 16:06 | 50.23626 | -2.08213 | 33909 ft | 394 kts | 214° |
| 2026-04-15 16:06 | 50.21309 | -2.10493 | 34133 ft | 394 kts | 214° |
| 2026-04-15 16:06 | 50.18985 | -2.12761 | 34278 ft | 394 kts | 214° |
| 2026-04-15 16:06 | 50.16652 | -2.15026 | 34382 ft | 395 kts | 214° |
| 2026-04-15 16:07 | 50.14347 | -2.17261 | 34521 ft | 396 kts | 214° |
| 2026-04-15 16:07 | 50.12009 | -2.19527 | 34667 ft | 396 kts | 214° |
| 2026-04-15 16:07 | 50.07324 | -2.24067 | 34947 ft | 397 kts | 214° |
| 2026-04-15 16:08 | 50.04974 | -2.26342 | 35038 ft | 398 kts | 214° |
| 2026-04-15 16:08 | 50.00259 | -2.30901 | 35063 ft | 401 kts | 215° |
| 2026-04-15 16:09 | 49.95503 | -2.35490 | 35059 ft | 403 kts | 215° |
| 2026-04-15 16:09 | 49.90769 | -2.40049 | 35065 ft | 403 kts | 215° |
| 2026-04-15 16:10 | 49.86005 | -2.44630 | 35068 ft | 403 kts | 215° |
| 2026-04-15 16:10 | 49.81243 | -2.49200 | 35072 ft | 403 kts | 215° |
| 2026-04-15 16:11 | 49.76478 | -2.53762 | 35071 ft | 403 kts | 215° |
| 2026-04-15 16:11 | 49.71743 | -2.58284 | 35034 ft | 403 kts | 215° |
| 2026-04-15 16:12 | 49.66975 | -2.62827 | 35083 ft | 402 kts | 215° |
| 2026-04-15 16:12 | 49.62210 | -2.67360 | 35091 ft | 403 kts | 215° |
| 2026-04-15 16:13 | 49.57438 | -2.71896 | 35100 ft | 404 kts | 216° |
| 2026-04-15 16:13 | 49.52673 | -2.76420 | 35097 ft | 406 kts | 216° |
| 2026-04-15 16:14 | 49.47865 | -2.80972 | 35076 ft | 406 kts | 216° |
| 2026-04-15 16:14 | 49.43062 | -2.85508 | 35083 ft | 405 kts | 216° |
| 2026-04-15 16:15 | 49.38263 | -2.90030 | 35074 ft | 405 kts | 216° |
| 2026-04-15 16:15 | 49.33493 | -2.94516 | 35071 ft | 405 kts | 216° |
| 2026-04-15 16:16 | 49.28689 | -2.99022 | 35088 ft | 405 kts | 216° |
| 2026-04-15 16:16 | 49.23885 | -3.03518 | 35077 ft | 404 kts | 216° |
| 2026-04-15 16:17 | 49.19090 | -3.07994 | 35083 ft | 403 kts | 216° |
| 2026-04-15 16:17 | 49.14328 | -3.12437 | 35086 ft | 405 kts | 216° |
| 2026-04-15 16:18 | 49.09506 | -3.16919 | 35086 ft | 406 kts | 216° |
| 2026-04-15 16:18 | 49.04678 | -3.21393 | 35090 ft | 406 kts | 216° |
| 2026-04-15 16:19 | 48.99882 | -3.25826 | 35095 ft | 405 kts | 217° |
| 2026-04-15 16:19 | 48.95065 | -3.30273 | 35097 ft | 405 kts | 217° |
| 2026-04-15 16:20 | 48.90244 | -3.34714 | 35097 ft | 405 kts | 217° |
| 2026-04-15 16:20 | 48.85423 | -3.39144 | 35101 ft | 405 kts | 217° |
| 2026-04-15 16:21 | 48.80598 | -3.43568 | 35102 ft | 405 kts | 217° |
| 2026-04-15 16:21 | 48.75804 | -3.47952 | 35102 ft | 405 kts | 217° |
| 2026-04-15 16:22 | 48.70972 | -3.52363 | 35103 ft | 406 kts | 217° |
| 2026-04-15 16:22 | 48.66120 | -3.56783 | 35101 ft | 407 kts | 217° |
| 2026-04-15 16:23 | 48.61264 | -3.61195 | 35100 ft | 407 kts | 217° |
| 2026-04-15 16:23 | 48.56439 | -3.65567 | 35096 ft | 407 kts | 217° |
| 2026-04-15 16:24 | 48.51591 | -3.69953 | 35100 ft | 406 kts | 217° |
| 2026-04-15 16:24 | 48.46746 | -3.74330 | 35106 ft | 406 kts | 217° |
| 2026-04-15 16:25 | 48.41901 | -3.78698 | 35104 ft | 406 kts | 217° |
| 2026-04-15 16:25 | 48.37086 | -3.83029 | 35061 ft | 406 kts | 217° |
| 2026-04-15 16:26 | 48.32238 | -3.87378 | 35132 ft | 405 kts | 218° |
| 2026-04-15 16:26 | 48.27387 | -3.91720 | 35115 ft | 407 kts | 217° |
| 2026-04-15 16:27 | 48.22554 | -3.96032 | 35132 ft | 407 kts | 217° |
| 2026-04-15 16:27 | 48.17690 | -4.00359 | 35141 ft | 407 kts | 217° |
| 2026-04-15 16:28 | 48.12820 | -4.04679 | 35149 ft | 406 kts | 217° |
| 2026-04-15 16:28 | 48.07961 | -4.08978 | 35155 ft | 405 kts | 217° |
| 2026-04-15 16:29 | 48.03107 | -4.13266 | 35158 ft | 405 kts | 217° |
| 2026-04-15 16:29 | 47.98287 | -4.17516 | 35156 ft | 405 kts | 217° |
| 2026-04-15 16:30 | 47.93429 | -4.21793 | 35114 ft | 405 kts | 217° |
| 2026-04-15 16:30 | 47.88578 | -4.26054 | 35157 ft | 403 kts | 217° |
| 2026-04-15 16:31 | 47.83747 | -4.30288 | 35154 ft | 403 kts | 217° |
| 2026-04-15 16:31 | 47.78946 | -4.34489 | 35146 ft | 403 kts | 217° |
| 2026-04-15 16:32 | 47.74113 | -4.38709 | 35149 ft | 403 kts | 217° |
| 2026-04-15 16:32 | 47.69275 | -4.42924 | 35151 ft | 403 kts | 217° |
| 2026-04-15 16:33 | 47.64440 | -4.47125 | 35154 ft | 403 kts | 217° |
| 2026-04-15 16:33 | 47.59635 | -4.51292 | 35159 ft | 403 kts | 217° |
| 2026-04-15 16:34 | 47.54795 | -4.55480 | 35157 ft | 403 kts | 217° |
| 2026-04-15 16:34 | 47.49954 | -4.59660 | 35111 ft | 403 kts | 217° |
| 2026-04-15 16:35 | 47.45107 | -4.63838 | 35158 ft | 403 kts | 217° |
| 2026-04-15 16:35 | 47.40288 | -4.67981 | 35158 ft | 404 kts | 217° |
| 2026-04-15 16:36 | 47.35434 | -4.72144 | 35173 ft | 404 kts | 217° |
| 2026-04-15 16:36 | 47.30575 | -4.76303 | 35164 ft | 404 kts | 216° |
| 2026-04-15 16:37 | 47.25712 | -4.80458 | 35153 ft | 404 kts | 216° |
| 2026-04-15 16:37 | 47.20874 | -4.84582 | 35163 ft | 405 kts | 216° |
| 2026-04-15 16:38 | 47.16002 | -4.88725 | 35164 ft | 405 kts | 216° |
| 2026-04-15 16:38 | 47.11126 | -4.92864 | 35171 ft | 405 kts | 216° |
| 2026-04-15 16:39 | 47.06248 | -4.96996 | 35142 ft | 405 kts | 216° |
| 2026-04-15 16:39 | 47.01384 | -5.01109 | 35169 ft | 407 kts | 216° |
| 2026-04-15 16:40 | 46.96473 | -5.05250 | 35172 ft | 407 kts | 216° |
| 2026-04-15 16:40 | 46.91561 | -5.09382 | 35175 ft | 407 kts | 216° |
| 2026-04-15 16:41 | 46.86648 | -5.13507 | 35174 ft | 407 kts | 216° |
| 2026-04-15 16:41 | 46.81754 | -5.17610 | 35179 ft | 410 kts | 216° |
| 2026-04-15 16:42 | 46.76797 | -5.21757 | 35175 ft | 411 kts | 216° |
| 2026-04-15 16:42 | 46.71835 | -5.25895 | 35175 ft | 411 kts | 216° |
| 2026-04-15 16:43 | 46.66870 | -5.30028 | 35181 ft | 411 kts | 216° |
| 2026-04-15 16:43 | 46.61932 | -5.34131 | 35181 ft | 412 kts | 216° |
| 2026-04-15 16:44 | 46.56956 | -5.38256 | 35179 ft | 412 kts | 216° |
| 2026-04-15 16:44 | 46.51980 | -5.42372 | 35184 ft | 412 kts | 216° |
| 2026-04-15 16:45 | 46.47004 | -5.46480 | 35184 ft | 412 kts | 216° |
| 2026-04-15 16:45 | 46.42057 | -5.50556 | 35174 ft | 412 kts | 216° |
| 2026-04-15 16:46 | 46.37071 | -5.54655 | 35185 ft | 412 kts | 216° |
| 2026-04-15 16:46 | 46.32081 | -5.58748 | 35190 ft | 412 kts | 216° |
| 2026-04-15 16:47 | 46.27086 | -5.62837 | 35191 ft | 413 kts | 216° |
| 2026-04-15 16:47 | 46.22083 | -5.66924 | 35171 ft | 413 kts | 216° |
| 2026-04-15 16:48 | 46.17110 | -5.70977 | 35195 ft | 413 kts | 216° |
| 2026-04-15 16:48 | 46.12100 | -5.75052 | 35194 ft | 414 kts | 216° |
| 2026-04-15 16:49 | 46.07084 | -5.79124 | 35192 ft | 414 kts | 216° |
| 2026-04-15 16:49 | 46.02069 | -5.83185 | 35186 ft | 414 kts | 216° |
| 2026-04-15 16:50 | 45.97078 | -5.87221 | 35201 ft | 415 kts | 216° |
| 2026-04-15 16:50 | 45.92047 | -5.91279 | 35200 ft | 415 kts | 215° |
| 2026-04-15 16:51 | 45.87013 | -5.95330 | 35201 ft | 415 kts | 216° |
| 2026-04-15 16:51 | 45.81971 | -5.99379 | 35200 ft | 415 kts | 216° |
| 2026-04-15 16:52 | 45.76962 | -6.03396 | 35202 ft | 416 kts | 216° |
| 2026-04-15 16:52 | 45.71906 | -6.07440 | 35203 ft | 416 kts | 216° |
| 2026-04-15 16:53 | 45.66851 | -6.11474 | 35205 ft | 416 kts | 215° |
| 2026-04-15 16:53 | 45.61824 | -6.15478 | 35206 ft | 416 kts | 215° |
| 2026-04-15 16:54 | 45.56759 | -6.19505 | 35205 ft | 417 kts | 215° |
| 2026-04-15 16:54 | 45.51686 | -6.23530 | 35216 ft | 418 kts | 215° |
| 2026-04-15 16:54 | 45.49142 | -6.25544 | 35352 ft | 418 kts | 216° |
| 2026-04-15 16:55 | 45.46602 | -6.27553 | 35539 ft | 418 kts | 216° |
| 2026-04-15 16:55 | 45.44060 | -6.29562 | 35715 ft | 418 kts | 216° |
| 2026-04-15 16:55 | 45.41551 | -6.31543 | 35865 ft | 418 kts | 216° |
| 2026-04-15 16:55 | 45.39010 | -6.33548 | 35987 ft | 419 kts | 215° |
| 2026-04-15 16:56 | 45.36459 | -6.35559 | 36096 ft | 420 kts | 215° |
| 2026-04-15 16:56 | 45.33904 | -6.37570 | 36237 ft | 420 kts | 215° |
| 2026-04-15 16:56 | 45.31348 | -6.39580 | 36386 ft | 420 kts | 215° |
| 2026-04-15 16:56 | 45.28791 | -6.41587 | 36526 ft | 420 kts | 215° |
| 2026-04-15 16:57 | 45.26233 | -6.43594 | 36658 ft | 420 kts | 215° |
| 2026-04-15 16:57 | 45.23708 | -6.45573 | 36787 ft | 420 kts | 215° |
| 2026-04-15 16:57 | 45.21149 | -6.47577 | 36912 ft | 421 kts | 215° |
| 2026-04-15 16:58 | 45.16013 | -6.51594 | 37060 ft | 423 kts | 215° |
| 2026-04-15 16:58 | 45.13440 | -6.53603 | 37179 ft | 423 kts | 215° |
| 2026-04-15 16:58 | 45.10857 | -6.55617 | 37217 ft | 424 kts | 215° |
| 2026-04-15 16:59 | 45.05693 | -6.59635 | 37217 ft | 423 kts | 215° |
| 2026-04-15 16:59 | 45.00573 | -6.63612 | 37219 ft | 423 kts | 215° |
| 2026-04-15 17:00 | 44.95415 | -6.67612 | 37221 ft | 423 kts | 215° |
| 2026-04-15 17:00 | 44.90247 | -6.71611 | 37220 ft | 424 kts | 215° |
| 2026-04-15 17:01 | 44.85077 | -6.75602 | 37223 ft | 424 kts | 215° |
| 2026-04-15 17:01 | 44.79940 | -6.79561 | 37220 ft | 424 kts | 215° |
| 2026-04-15 17:02 | 44.74764 | -6.83542 | 37225 ft | 424 kts | 215° |
| 2026-04-15 17:02 | 44.69578 | -6.87520 | 37222 ft | 425 kts | 215° |
| 2026-04-15 17:03 | 44.64392 | -6.91492 | 37220 ft | 425 kts | 215° |
| 2026-04-15 17:03 | 44.59240 | -6.95430 | 37225 ft | 425 kts | 215° |
| 2026-04-15 17:04 | 44.54048 | -6.99390 | 37222 ft | 425 kts | 215° |
| 2026-04-15 17:04 | 44.48855 | -7.03342 | 37222 ft | 425 kts | 215° |
| 2026-04-15 17:05 | 44.43662 | -7.07287 | 37224 ft | 425 kts | 215° |
| 2026-04-15 17:05 | 44.38465 | -7.11227 | 37201 ft | 425 kts | 215° |
| 2026-04-15 17:06 | 44.33295 | -7.15138 | 37224 ft | 426 kts | 215° |
| 2026-04-15 17:06 | 44.28081 | -7.19075 | 37225 ft | 426 kts | 215° |
| 2026-04-15 17:07 | 44.22864 | -7.23004 | 37230 ft | 426 kts | 215° |
| 2026-04-15 17:07 | 44.17656 | -7.26918 | 37212 ft | 425 kts | 215° |
| 2026-04-15 17:08 | 44.12480 | -7.30803 | 37224 ft | 426 kts | 215° |
| 2026-04-15 17:08 | 44.07266 | -7.34709 | 37224 ft | 426 kts | 215° |
| 2026-04-15 17:09 | 44.02049 | -7.38608 | 37224 ft | 426 kts | 215° |
| 2026-04-15 17:09 | 43.96827 | -7.42503 | 37216 ft | 426 kts | 215° |
| 2026-04-15 17:10 | 43.91634 | -7.46369 | 37230 ft | 427 kts | 215° |
| 2026-04-15 17:10 | 43.86401 | -7.50256 | 37228 ft | 427 kts | 215° |
| 2026-04-15 17:11 | 43.81165 | -7.54138 | 37230 ft | 427 kts | 214° |
| 2026-04-15 17:11 | 43.75926 | -7.58014 | 37224 ft | 427 kts | 214° |
| 2026-04-15 17:12 | 43.68104 | -7.63786 | 37229 ft | 426 kts | 215° |
| 2026-04-15 17:12 | 43.62875 | -7.67636 | 37236 ft | 426 kts | 215° |
| 2026-04-15 17:13 | 43.57643 | -7.71480 | 37240 ft | 426 kts | 215° |
| 2026-04-15 17:13 | 43.52413 | -7.75316 | 37234 ft | 426 kts | 214° |
| 2026-04-15 17:14 | 43.47208 | -7.79121 | 37235 ft | 426 kts | 214° |
| 2026-04-15 17:14 | 43.41972 | -7.82947 | 37234 ft | 426 kts | 214° |
| 2026-04-15 17:15 | 43.36732 | -7.86769 | 37232 ft | 426 kts | 214° |
| 2026-04-15 17:15 | 43.31497 | -7.90578 | 37240 ft | 426 kts | 214° |
| 2026-04-15 17:16 | 43.26250 | -7.94389 | 37245 ft | 426 kts | 214° |
| 2026-04-15 17:16 | 43.21041 | -7.98163 | 37246 ft | 426 kts | 214° |
| 2026-04-15 17:17 | 43.15795 | -8.01958 | 37246 ft | 426 kts | 214° |
| 2026-04-15 17:17 | 43.10547 | -8.05747 | 37250 ft | 426 kts | 214° |
| 2026-04-15 17:18 | 43.05302 | -8.09526 | 37252 ft | 426 kts | 214° |
| 2026-04-15 17:18 | 43.00089 | -8.13275 | 37255 ft | 426 kts | 214° |
| 2026-04-15 17:19 | 42.94840 | -8.17042 | 37258 ft | 426 kts | 214° |
| 2026-04-15 17:19 | 42.89592 | -8.20801 | 37261 ft | 426 kts | 214° |
| 2026-04-15 17:20 | 42.84346 | -8.24550 | 37254 ft | 426 kts | 214° |
| 2026-04-15 17:20 | 42.79134 | -8.28269 | 37252 ft | 426 kts | 214° |
| 2026-04-15 17:21 | 42.73889 | -8.32005 | 37252 ft | 426 kts | 214° |
| 2026-04-15 17:21 | 42.68642 | -8.35733 | 37266 ft | 424 kts | 214° |
| 2026-04-15 17:22 | 42.63421 | -8.39434 | 37259 ft | 423 kts | 214° |
| 2026-04-15 17:22 | 42.58237 | -8.43110 | 37258 ft | 423 kts | 214° |
| 2026-04-15 17:23 | 42.53020 | -8.46797 | 37263 ft | 423 kts | 214° |
| 2026-04-15 17:23 | 42.47801 | -8.50479 | 37263 ft | 423 kts | 214° |
| 2026-04-15 17:24 | 42.42578 | -8.54157 | 37267 ft | 423 kts | 214° |
| 2026-04-15 17:24 | 42.37353 | -8.57829 | 37268 ft | 423 kts | 214° |
| 2026-04-15 17:25 | 42.32160 | -8.61470 | 37266 ft | 423 kts | 214° |
| 2026-04-15 17:25 | 42.26932 | -8.65130 | 37273 ft | 423 kts | 213° |
| 2026-04-15 17:26 | 42.21705 | -8.68782 | 37268 ft | 423 kts | 213° |
| 2026-04-15 17:26 | 42.16480 | -8.72426 | 37257 ft | 423 kts | 213° |
| 2026-04-15 17:27 | 42.11274 | -8.76057 | 37271 ft | 426 kts | 213° |
| 2026-04-15 17:27 | 42.06008 | -8.79716 | 37254 ft | 426 kts | 213° |
| 2026-04-15 17:28 | 42.00741 | -8.83367 | 37268 ft | 426 kts | 213° |
| 2026-04-15 17:28 | 41.95477 | -8.87008 | 37267 ft | 425 kts | 213° |
| 2026-04-15 17:29 | 41.90216 | -8.90642 | 37268 ft | 425 kts | 213° |
| 2026-04-15 17:29 | 41.85060 | -8.94399 | 37264 ft | 422 kts | 218° |
| 2026-04-15 17:30 | 41.80281 | -8.98878 | 37278 ft | 418 kts | 221° |
| 2026-04-15 17:30 | 41.75577 | -9.03457 | 37262 ft | 418 kts | 221° |
| 2026-04-15 17:31 | 41.70884 | -9.08055 | 37257 ft | 418 kts | 221° |
| 2026-04-15 17:31 | 41.66223 | -9.12620 | 37261 ft | 418 kts | 221° |
| 2026-04-15 17:32 | 41.61529 | -9.17212 | 37249 ft | 418 kts | 221° |
| 2026-04-15 17:32 | 41.56834 | -9.21796 | 37271 ft | 418 kts | 221° |
| 2026-04-15 17:33 | 41.52140 | -9.26371 | 37262 ft | 418 kts | 221° |
| 2026-04-15 17:33 | 41.47444 | -9.30940 | 37269 ft | 418 kts | 221° |
| 2026-04-15 17:34 | 41.42778 | -9.35471 | 37267 ft | 418 kts | 221° |
| 2026-04-15 17:34 | 41.38076 | -9.40029 | 37257 ft | 418 kts | 221° |
| 2026-04-15 17:35 | 41.33376 | -9.44577 | 37269 ft | 418 kts | 221° |
| 2026-04-15 17:35 | 41.28670 | -9.49122 | 37261 ft | 417 kts | 221° |
| 2026-04-15 17:36 | 41.23973 | -9.53651 | 37264 ft | 417 kts | 221° |
| 2026-04-15 17:36 | 41.19303 | -9.58145 | 37264 ft | 417 kts | 221° |
| 2026-04-15 17:37 | 41.14603 | -9.62660 | 37262 ft | 417 kts | 221° |
| 2026-04-15 17:37 | 41.09904 | -9.67166 | 37265 ft | 416 kts | 221° |
| 2026-04-15 17:38 | 41.05211 | -9.71657 | 37265 ft | 416 kts | 221° |
| 2026-04-15 17:38 | 41.00514 | -9.76146 | 37264 ft | 416 kts | 221° |
| 2026-04-15 17:39 | 40.95811 | -9.80630 | 37267 ft | 416 kts | 221° |
| 2026-04-15 17:39 | 40.91143 | -9.85075 | 37257 ft | 416 kts | 221° |
| 2026-04-15 17:40 | 40.86466 | -9.89518 | 37266 ft | 413 kts | 221° |
| 2026-04-15 17:40 | 40.81801 | -9.93944 | 37266 ft | 413 kts | 221° |
| 2026-04-15 17:41 | 40.77135 | -9.98364 | 37268 ft | 413 kts | 221° |
| 2026-04-15 17:41 | 40.72467 | -10.02777 | 37268 ft | 413 kts | 220° |
| 2026-04-15 17:42 | 40.67828 | -10.07153 | 37258 ft | 412 kts | 221° |
| 2026-04-15 17:42 | 40.63178 | -10.11533 | 37276 ft | 410 kts | 221° |
| 2026-04-15 17:43 | 40.58537 | -10.15897 | 37264 ft | 410 kts | 221° |
| 2026-04-15 17:43 | 40.53897 | -10.20253 | 37274 ft | 410 kts | 221° |
| 2026-04-15 17:44 | 40.49257 | -10.24602 | 37267 ft | 410 kts | 220° |
| 2026-04-15 17:44 | 40.44645 | -10.28915 | 37252 ft | 410 kts | 221° |
| 2026-04-15 17:45 | 40.40011 | -10.33243 | 37274 ft | 408 kts | 221° |
| 2026-04-15 17:45 | 40.35382 | -10.37558 | 37262 ft | 408 kts | 221° |
| 2026-04-15 17:46 | 40.30757 | -10.41862 | 37267 ft | 408 kts | 221° |
| 2026-04-15 17:46 | 40.26910 | -10.45438 | 37261 ft | 408 kts | 221° |
| 2026-04-15 17:47 | 40.21527 | -10.50431 | 37276 ft | 408 kts | 221° |
| 2026-04-15 17:47 | 40.16893 | -10.54722 | 37278 ft | 408 kts | 221° |
| 2026-04-15 17:48 | 40.13043 | -10.58281 | 37280 ft | 408 kts | 220° |
| 2026-04-15 17:48 | 40.08407 | -10.62559 | 37279 ft | 408 kts | 220° |
| 2026-04-15 17:49 | 40.03769 | -10.66832 | 37267 ft | 408 kts | 220° |
| 2026-04-15 17:49 | 39.99132 | -10.71098 | 37275 ft | 408 kts | 220° |
| 2026-04-15 17:50 | 39.94522 | -10.75331 | 37275 ft | 408 kts | 220° |
| 2026-04-15 17:50 | 39.89882 | -10.79585 | 37276 ft | 408 kts | 220° |
| 2026-04-15 17:51 | 39.85238 | -10.83836 | 37276 ft | 408 kts | 220° |
| 2026-04-15 17:51 | 39.79840 | -10.88767 | 37274 ft | 408 kts | 220° |
| 2026-04-15 17:52 | 39.75946 | -10.92318 | 37279 ft | 408 kts | 220° |
| 2026-04-15 17:52 | 39.71330 | -10.96522 | 37273 ft | 408 kts | 220° |
| 2026-04-15 17:53 | 39.66677 | -11.00751 | 37274 ft | 408 kts | 220° |
| 2026-04-15 17:53 | 39.62023 | -11.04975 | 37276 ft | 408 kts | 220° |
| 2026-04-15 17:54 | 39.57369 | -11.09192 | 37278 ft | 408 kts | 220° |
| 2026-04-15 17:54 | 39.52742 | -11.13377 | 37281 ft | 408 kts | 220° |
| 2026-04-15 17:55 | 39.48082 | -11.17586 | 37269 ft | 408 kts | 220° |
| 2026-04-15 17:55 | 39.43411 | -11.21797 | 37279 ft | 410 kts | 220° |
| 2026-04-15 17:56 | 39.38694 | -11.26045 | 37278 ft | 415 kts | 219° |
| 2026-04-15 17:56 | 39.33948 | -11.30307 | 37279 ft | 415 kts | 219° |
| 2026-04-15 17:57 | 39.29206 | -11.34560 | 37274 ft | 415 kts | 219° |
| 2026-04-15 17:57 | 39.24496 | -11.38778 | 37248 ft | 415 kts | 219° |
| 2026-04-15 17:58 | 39.19745 | -11.43025 | 37278 ft | 417 kts | 219° |
| 2026-04-15 17:58 | 39.14976 | -11.47282 | 37276 ft | 417 kts | 219° |
| 2026-04-15 17:59 | 39.10205 | -11.51532 | 37276 ft | 417 kts | 219° |
| 2026-04-15 17:59 | 39.05434 | -11.55776 | 37281 ft | 417 kts | 219° |
| 2026-04-15 18:00 | 39.00691 | -11.59988 | 37284 ft | 417 kts | 219° |
| 2026-04-15 18:00 | 38.95911 | -11.64226 | 37287 ft | 418 kts | 218° |
| 2026-04-15 18:01 | 38.91117 | -11.68469 | 37284 ft | 419 kts | 218° |
| 2026-04-15 18:01 | 38.86318 | -11.72709 | 37284 ft | 419 kts | 218° |
| 2026-04-15 18:02 | 38.81513 | -11.76947 | 37284 ft | 419 kts | 218° |
| 2026-04-15 18:02 | 38.76742 | -11.81149 | 37284 ft | 419 kts | 218° |
| 2026-04-15 18:03 | 38.71945 | -11.85367 | 37289 ft | 419 kts | 218° |
| 2026-04-15 18:03 | 38.67131 | -11.89592 | 37288 ft | 420 kts | 218° |
| 2026-04-15 18:04 | 38.62310 | -11.93817 | 37285 ft | 420 kts | 218° |
| 2026-04-15 18:04 | 38.57487 | -11.98036 | 37288 ft | 420 kts | 218° |
| 2026-04-15 18:05 | 38.52666 | -12.02247 | 37288 ft | 420 kts | 218° |
| 2026-04-15 18:05 | 38.47872 | -12.06426 | 37285 ft | 420 kts | 217° |
| 2026-04-15 18:06 | 38.43032 | -12.10640 | 37289 ft | 422 kts | 217° |
| 2026-04-15 18:06 | 38.38180 | -12.14857 | 37289 ft | 422 kts | 217° |
| 2026-04-15 18:07 | 38.33327 | -12.19066 | 37287 ft | 422 kts | 217° |
| 2026-04-15 18:07 | 38.28471 | -12.23273 | 37287 ft | 422 kts | 217° |
| 2026-04-15 18:08 | 38.23612 | -12.27475 | 37278 ft | 422 kts | 217° |
| 2026-04-15 18:08 | 38.18774 | -12.31652 | 37287 ft | 424 kts | 217° |
| 2026-04-15 18:09 | 38.13892 | -12.35861 | 37292 ft | 424 kts | 217° |
| 2026-04-15 18:09 | 38.09005 | -12.40065 | 37292 ft | 424 kts | 217° |
| 2026-04-15 18:10 | 38.04120 | -12.44262 | 37289 ft | 424 kts | 217° |
| 2026-04-15 18:10 | 37.99269 | -12.48422 | 37291 ft | 424 kts | 217° |
| 2026-04-15 18:11 | 37.94383 | -12.52607 | 37290 ft | 425 kts | 217° |
| 2026-04-15 18:11 | 37.89483 | -12.56796 | 37289 ft | 425 kts | 217° |
| 2026-04-15 18:12 | 37.84582 | -12.60979 | 37289 ft | 425 kts | 217° |
| 2026-04-15 18:12 | 37.79679 | -12.65157 | 37289 ft | 425 kts | 217° |
| 2026-04-15 18:13 | 37.74776 | -12.69328 | 37289 ft | 425 kts | 217° |
| 2026-04-15 18:14 | 37.67416 | -12.75577 | 37291 ft | 425 kts | 217° |
| 2026-04-15 18:14 | 37.62542 | -12.79707 | 37292 ft | 425 kts | 216° |
| 2026-04-15 18:15 | 37.57632 | -12.83860 | 37291 ft | 425 kts | 216° |
| 2026-04-15 18:15 | 37.52723 | -12.88006 | 37292 ft | 425 kts | 216° |
| 2026-04-15 18:16 | 37.47810 | -12.92149 | 37274 ft | 425 kts | 216° |
| 2026-04-15 18:16 | 37.42893 | -12.96289 | 37289 ft | 426 kts | 216° |
| 2026-04-15 18:17 | 37.37964 | -13.00431 | 37284 ft | 426 kts | 216° |
| 2026-04-15 18:17 | 37.33033 | -13.04569 | 37289 ft | 426 kts | 216° |
| 2026-04-15 18:18 | 37.28133 | -13.08675 | 37304 ft | 426 kts | 216° |
| 2026-04-15 18:18 | 37.23201 | -13.12800 | 37293 ft | 426 kts | 216° |
| 2026-04-15 18:19 | 37.18263 | -13.16924 | 37296 ft | 427 kts | 216° |
| 2026-04-15 18:19 | 37.13322 | -13.21044 | 37281 ft | 427 kts | 216° |
| 2026-04-15 18:20 | 37.08376 | -13.25161 | 37293 ft | 427 kts | 216° |
| 2026-04-15 18:20 | 37.03461 | -13.29246 | 37292 ft | 427 kts | 216° |
| 2026-04-15 18:21 | 36.98515 | -13.33350 | 37286 ft | 427 kts | 216° |
| 2026-04-15 18:21 | 36.93564 | -13.37452 | 37290 ft | 427 kts | 216° |
| 2026-04-15 18:22 | 36.88617 | -13.41545 | 37291 ft | 426 kts | 216° |
| 2026-04-15 18:22 | 36.83668 | -13.45632 | 37287 ft | 426 kts | 216° |
| 2026-04-15 18:23 | 36.78720 | -13.49713 | 37301 ft | 426 kts | 215° |
| 2026-04-15 18:23 | 36.73795 | -13.53767 | 37299 ft | 427 kts | 215° |
| 2026-04-15 18:24 | 36.68829 | -13.57849 | 37286 ft | 427 kts | 215° |
| 2026-04-15 18:24 | 36.63867 | -13.61921 | 37291 ft | 427 kts | 215° |
| 2026-04-15 18:25 | 36.58904 | -13.65988 | 37293 ft | 427 kts | 215° |
| 2026-04-15 18:25 | 36.53977 | -13.70020 | 37288 ft | 427 kts | 215° |
| 2026-04-15 18:26 | 36.49011 | -13.74076 | 37296 ft | 427 kts | 215° |
| 2026-04-15 18:26 | 36.44047 | -13.78126 | 37285 ft | 427 kts | 215° |
| 2026-04-15 18:27 | 36.39114 | -13.82142 | 37290 ft | 421 kts | 215° |
| 2026-04-15 18:27 | 36.34220 | -13.86121 | 37295 ft | 420 kts | 214° |
| 2026-04-15 18:28 | 36.29363 | -13.90065 | 37293 ft | 421 kts | 214° |
| 2026-04-15 18:28 | 36.24467 | -13.94034 | 37289 ft | 421 kts | 214° |
| 2026-04-15 18:29 | 36.19567 | -13.98001 | 37288 ft | 421 kts | 214° |
| 2026-04-15 18:29 | 36.14666 | -14.01961 | 37284 ft | 421 kts | 214° |
| 2026-04-15 18:30 | 36.09761 | -14.05919 | 37291 ft | 421 kts | 214° |
| 2026-04-15 18:30 | 36.04886 | -14.09848 | 37292 ft | 421 kts | 214° |
| 2026-04-15 18:31 | 35.99976 | -14.13798 | 37293 ft | 421 kts | 214° |
| 2026-04-15 18:31 | 35.95066 | -14.17742 | 37294 ft | 421 kts | 214° |
| 2026-04-15 18:32 | 35.90150 | -14.21685 | 37298 ft | 421 kts | 214° |
| 2026-04-15 18:32 | 35.85264 | -14.25599 | 37294 ft | 422 kts | 214° |
| 2026-04-15 18:33 | 35.80332 | -14.29543 | 37292 ft | 423 kts | 214° |
| 2026-04-15 18:33 | 35.75399 | -14.33482 | 37293 ft | 423 kts | 214° |
| 2026-04-15 18:34 | 35.70462 | -14.37418 | 37291 ft | 423 kts | 213° |
| 2026-04-15 18:34 | 35.65527 | -14.41347 | 37289 ft | 423 kts | 213° |
| 2026-04-15 18:35 | 35.60620 | -14.45248 | 37287 ft | 423 kts | 213° |
| 2026-04-15 18:35 | 35.55671 | -14.49176 | 37284 ft | 424 kts | 213° |
| 2026-04-15 18:36 | 35.50717 | -14.53103 | 37283 ft | 424 kts | 213° |
| 2026-04-15 18:36 | 35.45761 | -14.57025 | 37286 ft | 424 kts | 213° |
| 2026-04-15 18:37 | 35.40832 | -14.60920 | 37288 ft | 425 kts | 213° |
| 2026-04-15 18:37 | 35.35863 | -14.64840 | 37287 ft | 425 kts | 213° |
| 2026-04-15 18:38 | 35.30885 | -14.68763 | 37286 ft | 426 kts | 212° |
| 2026-04-15 18:38 | 35.25889 | -14.72693 | 37285 ft | 427 kts | 212° |
| 2026-04-15 18:39 | 35.20893 | -14.76617 | 37283 ft | 427 kts | 212° |
| 2026-04-15 18:39 | 35.15925 | -14.80515 | 37288 ft | 427 kts | 212° |
| 2026-04-15 18:40 | 35.10923 | -14.84432 | 37284 ft | 427 kts | 212° |
| 2026-04-15 18:40 | 35.05922 | -14.88343 | 37286 ft | 427 kts | 212° |
| 2026-04-15 18:41 | 35.00917 | -14.92252 | 37284 ft | 427 kts | 212° |
| 2026-04-15 18:41 | 34.95910 | -14.96156 | 37284 ft | 428 kts | 212° |
| 2026-04-15 18:42 | 34.90922 | -15.00039 | 37280 ft | 428 kts | 212° |
| 2026-04-15 18:42 | 34.85900 | -15.03944 | 37281 ft | 428 kts | 212° |
| 2026-04-15 18:43 | 34.80873 | -15.07847 | 37282 ft | 428 kts | 212° |
| 2026-04-15 18:43 | 34.75872 | -15.11724 | 37278 ft | 430 kts | 212° |
| 2026-04-15 18:44 | 34.70825 | -15.15630 | 37280 ft | 430 kts | 212° |
| 2026-04-15 18:44 | 34.65776 | -15.19532 | 37274 ft | 430 kts | 212° |
| 2026-04-15 18:45 | 34.60726 | -15.23430 | 37279 ft | 430 kts | 212° |
| 2026-04-15 18:45 | 34.55707 | -15.27298 | 37274 ft | 430 kts | 212° |
| 2026-04-15 18:46 | 34.50649 | -15.31191 | 37276 ft | 431 kts | 211° |
| 2026-04-15 18:46 | 34.45579 | -15.35086 | 37276 ft | 432 kts | 211° |
| 2026-04-15 18:47 | 34.40503 | -15.38981 | 37276 ft | 432 kts | 211° |
| 2026-04-15 18:47 | 34.35426 | -15.42871 | 37271 ft | 432 kts | 211° |
| 2026-04-15 18:48 | 34.30379 | -15.46732 | 37273 ft | 432 kts | 211° |
| 2026-04-15 18:48 | 34.25299 | -15.50613 | 37276 ft | 432 kts | 211° |
| 2026-04-15 18:49 | 34.20205 | -15.54500 | 37272 ft | 434 kts | 211° |
| 2026-04-15 18:49 | 34.15100 | -15.58388 | 37272 ft | 434 kts | 211° |
| 2026-04-15 18:50 | 34.10024 | -15.62250 | 37270 ft | 434 kts | 211° |
| 2026-04-15 18:50 | 34.04911 | -15.66133 | 37274 ft | 435 kts | 211° |
| 2026-04-15 18:51 | 33.99782 | -15.70023 | 37274 ft | 436 kts | 211° |
| 2026-04-15 18:51 | 33.94649 | -15.73911 | 37270 ft | 436 kts | 211° |
| 2026-04-15 18:51 | 33.92090 | -15.75847 | 36881 ft | 432 kts | 211° |
| 2026-04-15 18:52 | 33.89568 | -15.77755 | 36224 ft | 426 kts | 211° |
| 2026-04-15 18:52 | 33.87062 | -15.79648 | 35437 ft | 425 kts | 211° |
| 2026-04-15 18:52 | 33.84551 | -15.81543 | 34501 ft | 428 kts | 211° |
| 2026-04-15 18:52 | 33.82015 | -15.83456 | 33433 ft | 432 kts | 211° |
| 2026-04-15 18:53 | 33.79496 | -15.85354 | 32399 ft | 434 kts | 211° |
| 2026-04-15 18:53 | 33.76928 | -15.87289 | 31265 ft | 439 kts | 211° |
| 2026-04-15 18:53 | 33.74334 | -15.89242 | 30184 ft | 442 kts | 210° |
| 2026-04-15 18:53 | 33.71735 | -15.91196 | 29210 ft | 439 kts | 211° |
| 2026-04-15 18:54 | 33.69163 | -15.93131 | 28395 ft | 433 kts | 211° |
| 2026-04-15 18:54 | 33.66633 | -15.95038 | 27613 ft | 427 kts | 211° |
| 2026-04-15 18:54 | 33.64141 | -15.96945 | 26795 ft | 423 kts | 212° |
| 2026-04-15 18:54 | 33.61678 | -15.98836 | 26053 ft | 418 kts | 212° |
| 2026-04-15 18:55 | 33.59249 | -16.00702 | 25527 ft | 413 kts | 212° |
| 2026-04-15 18:55 | 33.56827 | -16.02560 | 25302 ft | 413 kts | 212° |
| 2026-04-15 18:55 | 33.54439 | -16.04391 | 25260 ft | 413 kts | 212° |
| 2026-04-15 18:55 | 33.52022 | -16.06243 | 25262 ft | 412 kts | 212° |
| 2026-04-15 18:56 | 33.49604 | -16.08094 | 25270 ft | 412 kts | 212° |
| 2026-04-15 18:56 | 33.47189 | -16.09941 | 25268 ft | 412 kts | 212° |
| 2026-04-15 18:56 | 33.44785 | -16.11779 | 25045 ft | 406 kts | 212° |
| 2026-04-15 18:56 | 33.42415 | -16.13589 | 24326 ft | 403 kts | 212° |
| 2026-04-15 18:57 | 33.40063 | -16.15385 | 23564 ft | 399 kts | 212° |
| 2026-04-15 18:57 | 33.37732 | -16.17164 | 22689 ft | 396 kts | 212° |
| 2026-04-15 18:57 | 33.35412 | -16.18933 | 21839 ft | 393 kts | 212° |
| 2026-04-15 18:57 | 33.33160 | -16.20650 | 21278 ft | 384 kts | 212° |
| 2026-04-15 18:58 | 33.30908 | -16.22365 | 20267 ft | 386 kts | 212° |
| 2026-04-15 18:58 | 33.28625 | -16.24102 | 19231 ft | 391 kts | 211° |
| 2026-04-15 18:58 | 33.26333 | -16.25845 | 18482 ft | 389 kts | 210° |
| 2026-04-15 18:58 | 33.24048 | -16.27581 | 17793 ft | 389 kts | 210° |
| 2026-04-15 18:59 | 33.21767 | -16.29314 | 17152 ft | 387 kts | 211° |
| 2026-04-15 18:59 | 33.19504 | -16.31032 | 16525 ft | 383 kts | 211° |
| 2026-04-15 18:59 | 33.17289 | -16.32713 | 15910 ft | 370 kts | 211° |
| 2026-04-15 18:59 | 33.15161 | -16.34328 | 15319 ft | 354 kts | 211° |
| 2026-04-15 19:00 | 33.13120 | -16.35877 | 14731 ft | 341 kts | 210° |
| 2026-04-15 19:00 | 33.11149 | -16.37371 | 14163 ft | 331 kts | 210° |
| 2026-04-15 19:00 | 33.09260 | -16.38800 | 13543 ft | 322 kts | 210° |
| 2026-04-15 19:00 | 33.07393 | -16.40211 | 12911 ft | 315 kts | 210° |
| 2026-04-15 19:01 | 33.05554 | -16.41600 | 12295 ft | 312 kts | 210° |
| 2026-04-15 19:01 | 33.03728 | -16.42977 | 11679 ft | 310 kts | 210° |
| 2026-04-15 19:01 | 33.01909 | -16.44349 | 11089 ft | 308 kts | 210° |
| 2026-04-15 19:01 | 33.00102 | -16.45712 | 10490 ft | 307 kts | 210° |
| 2026-04-15 19:02 | 32.98301 | -16.47070 | 9881 ft | 305 kts | 210° |
| 2026-04-15 19:02 | 32.96515 | -16.48416 | 9232 ft | 303 kts | 210° |
| 2026-04-15 19:02 | 32.94767 | -16.49734 | 8630 ft | 300 kts | 210° |
| 2026-04-15 19:02 | 32.93036 | -16.51096 | 8012 ft | 297 kts | 215° |
| 2026-04-15 19:03 | 32.91460 | -16.52648 | 7408 ft | 292 kts | 219° |
| 2026-04-15 19:03 | 32.89946 | -16.54257 | 6807 ft | 291 kts | 220° |
| 2026-04-15 19:03 | 32.88468 | -16.55845 | 6500 ft | 280 kts | 220° |
| 2026-04-15 19:03 | 32.87041 | -16.57337 | 6228 ft | 269 kts | 218° |
| 2026-04-15 19:04 | 32.85601 | -16.58758 | 5657 ft | 271 kts | 216° |
| 2026-04-15 19:04 | 32.84087 | -16.60130 | 4967 ft | 277 kts | 213° |
| 2026-04-15 19:04 | 32.82441 | -16.61348 | 4282 ft | 280 kts | 205° |